sensor_id;sensor_type;location;lat;lon;timestamp;temperature;humidity
612;DHT22;293;53.888;11.464;2023-03-29T00:00:21;5.70;99.90
612;DHT22;293;53.888;11.464;2023-03-29T00:02:48;5.70;99.90
612;DHT22;293;53.888;11.464;2023-03-29T00:05:16;5.70;99.90
612;DHT22;293;53.888;11.464;2023-03-29T00:07:43;5.60;99.90
612;DHT22;293;53.888;11.464;2023-03-29T00:10:12;5.70;99.90
612;DHT22;293;53.888;11.464;2023-03-29T00:12:39;5.70;99.90
612;DHT22;293;53.888;11.464;2023-03-29T00:15:07;5.70;99.90
612;DHT22;293;53.888;11.464;2023-03-29T00:17:34;5.70;99.90
612;DHT22;293;53.888;11.464;2023-03-29T00:20:02;5.70;99.90
612;DHT22;293;53.888;11.464;2023-03-29T00:22:33;5.70;99.90
612;DHT22;293;53.888;11.464;2023-03-29T00:25:00;5.70;99.90
612;DHT22;293;53.888;11.464;2023-03-29T00:27:28;5.80;99.90
612;DHT22;293;53.888;11.464;2023-03-29T00:29:55;5.70;99.90
612;DHT22;293;53.888;11.464;2023-03-29T00:32:22;5.80;99.90
612;DHT22;293;53.888;11.464;2023-03-29T00:34:49;5.80;99.90
612;DHT22;293;53.888;11.464;2023-03-29T00:37:16;5.80;99.90
612;DHT22;293;53.888;11.464;2023-03-29T00:39:43;5.80;99.90
612;DHT22;293;53.888;11.464;2023-03-29T00:42:12;5.80;99.90
612;DHT22;293;53.888;11.464;2023-03-29T00:44:59;5.80;99.90
612;DHT22;293;53.888;11.464;2023-03-29T00:47:30;5.90;99.90
612;DHT22;293;53.888;11.464;2023-03-29T00:50:02;5.90;99.90
612;DHT22;293;53.888;11.464;2023-03-29T00:52:31;5.90;99.90
612;DHT22;293;53.888;11.464;2023-03-29T00:55:03;5.90;99.90
612;DHT22;293;53.888;11.464;2023-03-29T00:57:33;5.90;99.90
612;DHT22;293;53.888;11.464;2023-03-29T01:00:03;5.90;99.90
612;DHT22;293;53.888;11.464;2023-03-29T01:02:37;6.00;99.90
612;DHT22;293;53.888;11.464;2023-03-29T01:05:07;5.90;99.90
612;DHT22;293;53.888;11.464;2023-03-29T01:07:39;6.00;99.90
612;DHT22;293;53.888;11.464;2023-03-29T01:10:10;6.00;99.90
612;DHT22;293;53.888;11.464;2023-03-29T01:12:42;6.00;99.90
612;DHT22;293;53.888;11.464;2023-03-29T01:15:13;6.00;99.90
612;DHT22;293;53.888;11.464;2023-03-29T01:17:41;6.00;99.90
612;DHT22;293;53.888;11.464;2023-03-29T01:20:19;6.00;99.90
612;DHT22;293;53.888;11.464;2023-03-29T01:23:06;6.00;99.90
612;DHT22;293;53.888;11.464;2023-03-29T01:25:45;6.00;99.90
612;DHT22;293;53.888;11.464;2023-03-29T01:28:18;6.00;99.90
612;DHT22;293;53.888;11.464;2023-03-29T01:30:48;5.90;99.90
612;DHT22;293;53.888;11.464;2023-03-29T01:33:19;5.90;99.90
612;DHT22;293;53.888;11.464;2023-03-29T01:35:51;5.80;99.90
612;DHT22;293;53.888;11.464;2023-03-29T01:38:24;5.80;99.90
612;DHT22;293;53.888;11.464;2023-03-29T01:40:53;5.80;99.90
612;DHT22;293;53.888;11.464;2023-03-29T01:43:25;5.70;99.90
612;DHT22;293;53.888;11.464;2023-03-29T01:45:59;5.80;99.90
612;DHT22;293;53.888;11.464;2023-03-29T01:48:30;5.80;99.90
612;DHT22;293;53.888;11.464;2023-03-29T01:51:01;5.80;99.90
612;DHT22;293;53.888;11.464;2023-03-29T01:53:34;5.80;99.90
612;DHT22;293;53.888;11.464;2023-03-29T01:56:06;5.80;99.90
612;DHT22;293;53.888;11.464;2023-03-29T01:58:37;5.80;99.90
612;DHT22;293;53.888;11.464;2023-03-29T02:01:07;5.80;99.90
612;DHT22;293;53.888;11.464;2023-03-29T02:03:37;5.90;99.90
612;DHT22;293;53.888;11.464;2023-03-29T02:06:08;5.90;99.90
612;DHT22;293;53.888;11.464;2023-03-29T02:08:36;5.90;99.90
612;DHT22;293;53.888;11.464;2023-03-29T02:11:04;6.00;99.90
612;DHT22;293;53.888;11.464;2023-03-29T02:13:33;6.00;99.90
612;DHT22;293;53.888;11.464;2023-03-29T02:16:02;6.00;99.90
612;DHT22;293;53.888;11.464;2023-03-29T02:18:29;6.00;99.90
612;DHT22;293;53.888;11.464;2023-03-29T02:20:56;6.00;99.90
612;DHT22;293;53.888;11.464;2023-03-29T02:23:26;6.00;99.90
612;DHT22;293;53.888;11.464;2023-03-29T02:25:54;6.00;99.90
612;DHT22;293;53.888;11.464;2023-03-29T02:28:23;6.00;99.90
612;DHT22;293;53.888;11.464;2023-03-29T02:30:56;6.10;99.90
612;DHT22;293;53.888;11.464;2023-03-29T02:33:32;6.10;99.90
612;DHT22;293;53.888;11.464;2023-03-29T02:36:05;6.10;99.90
612;DHT22;293;53.888;11.464;2023-03-29T02:38:35;6.10;99.90
612;DHT22;293;53.888;11.464;2023-03-29T02:41:04;6.00;99.90
612;DHT22;293;53.888;11.464;2023-03-29T02:43:32;6.10;99.90
612;DHT22;293;53.888;11.464;2023-03-29T02:46:02;6.00;99.90
612;DHT22;293;53.888;11.464;2023-03-29T02:48:30;6.00;99.90
612;DHT22;293;53.888;11.464;2023-03-29T02:51:00;6.10;99.90
612;DHT22;293;53.888;11.464;2023-03-29T02:53:32;6.10;99.90
612;DHT22;293;53.888;11.464;2023-03-29T02:56:00;6.10;99.90
612;DHT22;293;53.888;11.464;2023-03-29T02:58:28;6.10;99.90
612;DHT22;293;53.888;11.464;2023-03-29T03:00:57;6.10;99.90
612;DHT22;293;53.888;11.464;2023-03-29T03:03:26;6.10;99.90
612;DHT22;293;53.888;11.464;2023-03-29T03:05:53;6.10;99.90
612;DHT22;293;53.888;11.464;2023-03-29T03:08:20;6.10;99.90
612;DHT22;293;53.888;11.464;2023-03-29T03:10:47;6.10;99.90
612;DHT22;293;53.888;11.464;2023-03-29T03:13:14;6.00;99.90
612;DHT22;293;53.888;11.464;2023-03-29T03:15:41;6.00;99.90
612;DHT22;293;53.888;11.464;2023-03-29T03:18:08;6.10;99.90
612;DHT22;293;53.888;11.464;2023-03-29T03:20:38;6.10;99.90
612;DHT22;293;53.888;11.464;2023-03-29T03:23:05;6.10;99.90
612;DHT22;293;53.888;11.464;2023-03-29T03:25:34;6.10;99.90
612;DHT22;293;53.888;11.464;2023-03-29T03:28:01;6.10;99.90
612;DHT22;293;53.888;11.464;2023-03-29T03:30:28;6.10;99.90
612;DHT22;293;53.888;11.464;2023-03-29T03:32:54;6.00;99.90
612;DHT22;293;53.888;11.464;2023-03-29T03:35:22;6.10;99.90
612;DHT22;293;53.888;11.464;2023-03-29T03:37:50;6.00;99.90
612;DHT22;293;53.888;11.464;2023-03-29T03:40:17;6.10;99.90
612;DHT22;293;53.888;11.464;2023-03-29T03:42:44;6.10;99.90
612;DHT22;293;53.888;11.464;2023-03-29T03:45:11;6.00;99.90
612;DHT22;293;53.888;11.464;2023-03-29T03:47:38;6.00;99.90
612;DHT22;293;53.888;11.464;2023-03-29T03:50:06;6.00;99.90
612;DHT22;293;53.888;11.464;2023-03-29T03:52:34;6.00;99.90
612;DHT22;293;53.888;11.464;2023-03-29T03:55:02;6.10;99.90
612;DHT22;293;53.888;11.464;2023-03-29T03:57:29;6.00;99.90
612;DHT22;293;53.888;11.464;2023-03-29T03:59:57;6.00;99.90
612;DHT22;293;53.888;11.464;2023-03-29T04:02:24;6.00;99.90
612;DHT22;293;53.888;11.464;2023-03-29T04:04:52;6.00;99.90
612;DHT22;293;53.888;11.464;2023-03-29T04:07:19;6.00;99.90
612;DHT22;293;53.888;11.464;2023-03-29T04:09:46;6.00;99.90
612;DHT22;293;53.888;11.464;2023-03-29T04:12:14;6.00;99.90
612;DHT22;293;53.888;11.464;2023-03-29T04:14:41;6.00;99.90
612;DHT22;293;53.888;11.464;2023-03-29T04:17:08;6.00;99.90
612;DHT22;293;53.888;11.464;2023-03-29T04:19:35;6.00;99.90
612;DHT22;293;53.888;11.464;2023-03-29T04:22:02;6.00;99.90
612;DHT22;293;53.888;11.464;2023-03-29T04:24:29;6.00;99.90
612;DHT22;293;53.888;11.464;2023-03-29T04:26:56;6.10;99.90
612;DHT22;293;53.888;11.464;2023-03-29T04:29:24;6.00;99.90
612;DHT22;293;53.888;11.464;2023-03-29T04:31:51;5.90;99.90
612;DHT22;293;53.888;11.464;2023-03-29T04:34:18;5.90;99.90
612;DHT22;293;53.888;11.464;2023-03-29T04:36:44;5.90;99.90
612;DHT22;293;53.888;11.464;2023-03-29T04:39:14;5.90;99.90
612;DHT22;293;53.888;11.464;2023-03-29T04:41:42;5.90;99.90
612;DHT22;293;53.888;11.464;2023-03-29T04:44:09;5.90;99.90
612;DHT22;293;53.888;11.464;2023-03-29T04:46:38;5.90;99.90
612;DHT22;293;53.888;11.464;2023-03-29T04:49:05;5.90;99.90
612;DHT22;293;53.888;11.464;2023-03-29T04:51:32;5.80;99.90
612;DHT22;293;53.888;11.464;2023-03-29T04:53:59;5.80;99.90
612;DHT22;293;53.888;11.464;2023-03-29T04:56:26;5.80;99.90
612;DHT22;293;53.888;11.464;2023-03-29T04:58:53;5.80;99.90
612;DHT22;293;53.888;11.464;2023-03-29T05:01:20;5.70;99.90
612;DHT22;293;53.888;11.464;2023-03-29T05:03:48;5.70;99.90
612;DHT22;293;53.888;11.464;2023-03-29T05:06:15;5.60;99.90
612;DHT22;293;53.888;11.464;2023-03-29T05:08:42;5.60;99.90
612;DHT22;293;53.888;11.464;2023-03-29T05:11:10;5.60;99.90
612;DHT22;293;53.888;11.464;2023-03-29T05:13:38;5.60;99.90
612;DHT22;293;53.888;11.464;2023-03-29T05:16:06;5.60;99.90
612;DHT22;293;53.888;11.464;2023-03-29T05:18:33;5.60;99.90
612;DHT22;293;53.888;11.464;2023-03-29T05:21:01;5.60;99.90
612;DHT22;293;53.888;11.464;2023-03-29T05:23:28;5.60;99.90
612;DHT22;293;53.888;11.464;2023-03-29T05:25:55;5.70;99.90
612;DHT22;293;53.888;11.464;2023-03-29T05:28:22;5.70;99.90
612;DHT22;293;53.888;11.464;2023-03-29T05:30:58;5.70;99.90
612;DHT22;293;53.888;11.464;2023-03-29T05:33:25;5.70;99.90
612;DHT22;293;53.888;11.464;2023-03-29T05:35:58;5.80;99.90
612;DHT22;293;53.888;11.464;2023-03-29T05:38:26;5.80;99.90
612;DHT22;293;53.888;11.464;2023-03-29T05:40:54;5.90;99.90
612;DHT22;293;53.888;11.464;2023-03-29T05:43:22;6.00;99.90
612;DHT22;293;53.888;11.464;2023-03-29T05:45:51;6.10;99.90
612;DHT22;293;53.888;11.464;2023-03-29T05:48:18;6.30;99.90
612;DHT22;293;53.888;11.464;2023-03-29T05:50:46;6.40;99.90
612;DHT22;293;53.888;11.464;2023-03-29T05:53:13;6.60;99.90
612;DHT22;293;53.888;11.464;2023-03-29T05:55:41;7.00;99.90
612;DHT22;293;53.888;11.464;2023-03-29T05:58:08;7.30;99.90
612;DHT22;293;53.888;11.464;2023-03-29T06:00:36;7.40;99.90
612;DHT22;293;53.888;11.464;2023-03-29T06:03:04;7.40;99.90
612;DHT22;293;53.888;11.464;2023-03-29T06:05:32;7.30;99.90
612;DHT22;293;53.888;11.464;2023-03-29T06:07:59;7.30;99.90
612;DHT22;293;53.888;11.464;2023-03-29T06:10:26;7.10;99.90
612;DHT22;293;53.888;11.464;2023-03-29T06:12:54;7.10;99.90
612;DHT22;293;53.888;11.464;2023-03-29T06:15:21;7.10;99.90
612;DHT22;293;53.888;11.464;2023-03-29T06:17:48;7.10;99.90
612;DHT22;293;53.888;11.464;2023-03-29T06:20:16;7.20;99.90
612;DHT22;293;53.888;11.464;2023-03-29T06:22:43;7.20;99.90
612;DHT22;293;53.888;11.464;2023-03-29T06:25:11;7.20;99.90
612;DHT22;293;53.888;11.464;2023-03-29T06:27:40;7.20;99.90
612;DHT22;293;53.888;11.464;2023-03-29T06:30:09;7.20;99.90
612;DHT22;293;53.888;11.464;2023-03-29T06:32:36;7.20;99.90
612;DHT22;293;53.888;11.464;2023-03-29T06:35:03;7.20;99.90
612;DHT22;293;53.888;11.464;2023-03-29T06:37:31;7.10;99.90
612;DHT22;293;53.888;11.464;2023-03-29T06:39:58;7.10;99.90
612;DHT22;293;53.888;11.464;2023-03-29T06:42:25;7.10;99.90
612;DHT22;293;53.888;11.464;2023-03-29T06:44:53;7.10;99.90
612;DHT22;293;53.888;11.464;2023-03-29T06:47:21;7.10;99.90
612;DHT22;293;53.888;11.464;2023-03-29T06:49:53;7.10;99.90
612;DHT22;293;53.888;11.464;2023-03-29T06:52:20;7.00;99.90
612;DHT22;293;53.888;11.464;2023-03-29T06:54:47;7.00;99.90
612;DHT22;293;53.888;11.464;2023-03-29T06:57:14;7.10;99.90
612;DHT22;293;53.888;11.464;2023-03-29T06:59:42;7.10;99.90
612;DHT22;293;53.888;11.464;2023-03-29T07:02:09;7.20;99.90
612;DHT22;293;53.888;11.464;2023-03-29T07:04:38;7.30;99.90
612;DHT22;293;53.888;11.464;2023-03-29T07:07:06;7.40;99.90
612;DHT22;293;53.888;11.464;2023-03-29T07:09:37;7.50;99.90
612;DHT22;293;53.888;11.464;2023-03-29T07:12:05;7.60;99.90
612;DHT22;293;53.888;11.464;2023-03-29T07:14:32;7.70;99.90
612;DHT22;293;53.888;11.464;2023-03-29T07:17:00;7.80;99.90
612;DHT22;293;53.888;11.464;2023-03-29T07:19:26;7.90;99.90
612;DHT22;293;53.888;11.464;2023-03-29T07:21:56;8.00;99.90
612;DHT22;293;53.888;11.464;2023-03-29T07:24:23;8.10;99.90
612;DHT22;293;53.888;11.464;2023-03-29T07:26:50;8.20;99.90
612;DHT22;293;53.888;11.464;2023-03-29T07:29:17;8.30;99.90
612;DHT22;293;53.888;11.464;2023-03-29T07:31:44;8.40;99.90
612;DHT22;293;53.888;11.464;2023-03-29T07:34:11;8.50;99.90
612;DHT22;293;53.888;11.464;2023-03-29T07:36:38;8.60;99.90
612;DHT22;293;53.888;11.464;2023-03-29T07:39:06;8.60;99.90
612;DHT22;293;53.888;11.464;2023-03-29T07:41:34;8.70;99.90
612;DHT22;293;53.888;11.464;2023-03-29T07:44:01;8.70;99.90
612;DHT22;293;53.888;11.464;2023-03-29T07:46:33;8.70;99.90
612;DHT22;293;53.888;11.464;2023-03-29T07:49:00;8.80;99.90
612;DHT22;293;53.888;11.464;2023-03-29T07:51:27;8.80;99.80
612;DHT22;293;53.888;11.464;2023-03-29T07:53:54;8.80;99.80
612;DHT22;293;53.888;11.464;2023-03-29T07:56:22;8.80;99.60
612;DHT22;293;53.888;11.464;2023-03-29T07:58:49;8.90;99.70
612;DHT22;293;53.888;11.464;2023-03-29T08:01:16;8.90;99.70
612;DHT22;293;53.888;11.464;2023-03-29T08:03:43;9.10;99.80
612;DHT22;293;53.888;11.464;2023-03-29T08:06:10;9.20;99.80
612;DHT22;293;53.888;11.464;2023-03-29T08:08:37;9.30;99.80
612;DHT22;293;53.888;11.464;2023-03-29T08:11:05;9.50;99.80
612;DHT22;293;53.888;11.464;2023-03-29T08:13:35;9.70;99.70
612;DHT22;293;53.888;11.464;2023-03-29T08:16:01;9.80;99.60
612;DHT22;293;53.888;11.464;2023-03-29T08:18:30;10.00;99.20
612;DHT22;293;53.888;11.464;2023-03-29T08:20:57;10.20;98.90
612;DHT22;293;53.888;11.464;2023-03-29T08:23:24;10.30;98.30
612;DHT22;293;53.888;11.464;2023-03-29T08:25:51;10.50;98.20
612;DHT22;293;53.888;11.464;2023-03-29T08:28:18;10.60;98.20
612;DHT22;293;53.888;11.464;2023-03-29T08:30:46;10.80;97.90
612;DHT22;293;53.888;11.464;2023-03-29T08:33:14;11.00;97.70
612;DHT22;293;53.888;11.464;2023-03-29T08:35:41;11.10;97.20
612;DHT22;293;53.888;11.464;2023-03-29T08:38:08;11.10;97.20
612;DHT22;293;53.888;11.464;2023-03-29T08:40:34;11.00;96.60
612;DHT22;293;53.888;11.464;2023-03-29T08:43:17;11.00;96.60
612;DHT22;293;53.888;11.464;2023-03-29T08:45:56;11.00;96.60
612;DHT22;293;53.888;11.464;2023-03-29T08:48:29;11.00;96.80
612;DHT22;293;53.888;11.464;2023-03-29T08:50:59;11.20;97.10
612;DHT22;293;53.888;11.464;2023-03-29T08:53:29;11.40;96.80
612;DHT22;293;53.888;11.464;2023-03-29T08:55:58;11.60;96.70
612;DHT22;293;53.888;11.464;2023-03-29T08:58:30;11.70;96.50
612;DHT22;293;53.888;11.464;2023-03-29T09:01:01;11.80;96.10
612;DHT22;293;53.888;11.464;2023-03-29T09:03:32;11.90;95.60
612;DHT22;293;53.888;11.464;2023-03-29T09:06:04;11.80;95.70
612;DHT22;293;53.888;11.464;2023-03-29T09:08:32;11.90;95.80
612;DHT22;293;53.888;11.464;2023-03-29T09:11:11;11.90;95.70
612;DHT22;293;53.888;11.464;2023-03-29T09:13:48;11.90;95.70
612;DHT22;293;53.888;11.464;2023-03-29T09:16:24;11.90;95.80
612;DHT22;293;53.888;11.464;2023-03-29T09:18:59;12.00;95.70
612;DHT22;293;53.888;11.464;2023-03-29T09:21:34;12.10;95.70
612;DHT22;293;53.888;11.464;2023-03-29T09:27:03;12.20;95.30
612;DHT22;293;53.888;11.464;2023-03-29T09:29:53;12.30;95.40
612;DHT22;293;53.888;11.464;2023-03-29T09:32:27;12.40;95.30
612;DHT22;293;53.888;11.464;2023-03-29T09:35:02;12.40;95.10
612;DHT22;293;53.888;11.464;2023-03-29T09:37:36;12.40;94.80
612;DHT22;293;53.888;11.464;2023-03-29T09:40:09;12.40;94.90
612;DHT22;293;53.888;11.464;2023-03-29T09:42:38;12.50;95.10
612;DHT22;293;53.888;11.464;2023-03-29T09:45:06;12.60;95.00
612;DHT22;293;53.888;11.464;2023-03-29T09:47:37;12.60;94.80
612;DHT22;293;53.888;11.464;2023-03-29T09:50:10;12.70;94.90
612;DHT22;293;53.888;11.464;2023-03-29T09:52:39;12.80;95.10
612;DHT22;293;53.888;11.464;2023-03-29T09:55:11;12.90;94.80
612;DHT22;293;53.888;11.464;2023-03-29T09:57:38;13.00;94.60
612;DHT22;293;53.888;11.464;2023-03-29T10:00:06;13.00;94.70
612;DHT22;293;53.888;11.464;2023-03-29T10:02:36;13.10;94.50
612;DHT22;293;53.888;11.464;2023-03-29T10:05:04;13.10;94.40
612;DHT22;293;53.888;11.464;2023-03-29T10:07:40;13.00;94.50
612;DHT22;293;53.888;11.464;2023-03-29T10:10:13;12.90;94.60
612;DHT22;293;53.888;11.464;2023-03-29T10:12:47;12.80;94.80
612;DHT22;293;53.888;11.464;2023-03-29T10:15:20;12.70;95.20
612;DHT22;293;53.888;11.464;2023-03-29T10:17:48;12.50;95.50
612;DHT22;293;53.888;11.464;2023-03-29T10:20:27;12.40;95.70
612;DHT22;293;53.888;11.464;2023-03-29T10:22:55;12.30;96.00
612;DHT22;293;53.888;11.464;2023-03-29T10:25:25;12.30;96.40
612;DHT22;293;53.888;11.464;2023-03-29T10:27:55;12.20;96.50
612;DHT22;293;53.888;11.464;2023-03-29T10:30:24;12.20;97.20
612;DHT22;293;53.888;11.464;2023-03-29T10:32:56;12.20;97.10
612;DHT22;293;53.888;11.464;2023-03-29T10:35:28;12.30;97.20
612;DHT22;293;53.888;11.464;2023-03-29T10:37:57;12.20;97.00
612;DHT22;293;53.888;11.464;2023-03-29T10:40:29;12.20;97.10
612;DHT22;293;53.888;11.464;2023-03-29T10:42:58;12.20;97.10
612;DHT22;293;53.888;11.464;2023-03-29T10:45:28;12.30;97.00
612;DHT22;293;53.888;11.464;2023-03-29T10:47:57;12.40;97.20
612;DHT22;293;53.888;11.464;2023-03-29T10:50:29;12.60;97.40
612;DHT22;293;53.888;11.464;2023-03-29T10:52:57;12.70;97.10
612;DHT22;293;53.888;11.464;2023-03-29T10:55:29;12.90;96.80
612;DHT22;293;53.888;11.464;2023-03-29T10:58:04;12.90;96.80
612;DHT22;293;53.888;11.464;2023-03-29T11:00:39;12.90;96.30
612;DHT22;293;53.888;11.464;2023-03-29T11:03:32;12.90;96.20
612;DHT22;293;53.888;11.464;2023-03-29T11:06:11;12.90;96.30
612;DHT22;293;53.888;11.464;2023-03-29T11:08:51;13.00;96.00
612;DHT22;293;53.888;11.464;2023-03-29T11:11:56;13.00;95.80
612;DHT22;293;53.888;11.464;2023-03-29T11:14:32;13.00;95.70
612;DHT22;293;53.888;11.464;2023-03-29T11:17:10;13.10;95.70
612;DHT22;293;53.888;11.464;2023-03-29T11:19:54;13.10;95.00
612;DHT22;293;53.888;11.464;2023-03-29T11:22:31;13.10;94.80
612;DHT22;293;53.888;11.464;2023-03-29T11:25:19;13.00;94.90
612;DHT22;293;53.888;11.464;2023-03-29T11:27:53;13.10;95.00
612;DHT22;293;53.888;11.464;2023-03-29T11:30:26;13.20;95.00
612;DHT22;293;53.888;11.464;2023-03-29T11:33:01;13.20;95.00
612;DHT22;293;53.888;11.464;2023-03-29T11:35:43;13.20;94.70
612;DHT22;293;53.888;11.464;2023-03-29T11:38:26;13.20;94.80
612;DHT22;293;53.888;11.464;2023-03-29T11:40:59;13.30;94.60
612;DHT22;293;53.888;11.464;2023-03-29T11:43:30;13.30;94.40
612;DHT22;293;53.888;11.464;2023-03-29T11:46:02;13.30;94.30
612;DHT22;293;53.888;11.464;2023-03-29T11:48:36;13.30;94.40
612;DHT22;293;53.888;11.464;2023-03-29T11:51:10;13.30;94.10
612;DHT22;293;53.888;11.464;2023-03-29T11:53:43;13.40;94.10
612;DHT22;293;53.888;11.464;2023-03-29T11:56:14;13.30;93.80
612;DHT22;293;53.888;11.464;2023-03-29T11:58:48;13.30;93.60
612;DHT22;293;53.888;11.464;2023-03-29T12:01:19;13.10;93.50
612;DHT22;293;53.888;11.464;2023-03-29T12:03:52;13.00;93.60
612;DHT22;293;53.888;11.464;2023-03-29T12:06:25;12.90;94.00
612;DHT22;293;53.888;11.464;2023-03-29T12:08:57;12.90;94.30
612;DHT22;293;53.888;11.464;2023-03-29T12:11:29;13.00;94.50
612;DHT22;293;53.888;11.464;2023-03-29T12:14:03;13.20;94.40
612;DHT22;293;53.888;11.464;2023-03-29T12:16:33;13.30;94.20
612;DHT22;293;53.888;11.464;2023-03-29T12:19:05;13.40;94.10
612;DHT22;293;53.888;11.464;2023-03-29T12:21:35;13.40;93.80
612;DHT22;293;53.888;11.464;2023-03-29T12:24:02;13.50;93.90
612;DHT22;293;53.888;11.464;2023-03-29T12:26:39;13.50;93.70
612;DHT22;293;53.888;11.464;2023-03-29T12:29:29;13.60;93.80
612;DHT22;293;53.888;11.464;2023-03-29T12:32:14;13.80;93.90
612;DHT22;293;53.888;11.464;2023-03-29T12:34:55;14.10;93.70
612;DHT22;293;53.888;11.464;2023-03-29T12:37:33;14.30;93.40
612;DHT22;293;53.888;11.464;2023-03-29T12:40:11;14.30;92.90
612;DHT22;293;53.888;11.464;2023-03-29T12:42:51;14.20;92.60
612;DHT22;293;53.888;11.464;2023-03-29T12:45:25;14.00;92.60
612;DHT22;293;53.888;11.464;2023-03-29T12:47:54;13.90;92.70
612;DHT22;293;53.888;11.464;2023-03-29T12:50:25;13.90;92.70
612;DHT22;293;53.888;11.464;2023-03-29T12:53:04;13.70;92.70
612;DHT22;293;53.888;11.464;2023-03-29T12:55:45;13.60;92.70
612;DHT22;293;53.888;11.464;2023-03-29T12:58:25;13.50;93.20
612;DHT22;293;53.888;11.464;2023-03-29T13:01:02;13.40;93.40
612;DHT22;293;53.888;11.464;2023-03-29T13:03:39;13.30;93.70
612;DHT22;293;53.888;11.464;2023-03-29T13:06:09;13.30;94.00
612;DHT22;293;53.888;11.464;2023-03-29T13:08:40;13.20;94.10
612;DHT22;293;53.888;11.464;2023-03-29T13:11:11;13.20;94.10
612;DHT22;293;53.888;11.464;2023-03-29T13:13:40;13.20;94.40
612;DHT22;293;53.888;11.464;2023-03-29T13:16:13;13.20;94.50
612;DHT22;293;53.888;11.464;2023-03-29T13:18:50;13.30;94.50
612;DHT22;293;53.888;11.464;2023-03-29T13:21:24;13.30;94.50
612;DHT22;293;53.888;11.464;2023-03-29T13:24:00;13.20;94.40
612;DHT22;293;53.888;11.464;2023-03-29T13:26:42;13.30;94.80
612;DHT22;293;53.888;11.464;2023-03-29T13:32:15;13.30;94.70
612;DHT22;293;53.888;11.464;2023-03-29T13:34:46;13.20;94.90
612;DHT22;293;53.888;11.464;2023-03-29T13:37:27;13.20;95.20
612;DHT22;293;53.888;11.464;2023-03-29T13:39:59;13.00;95.50
612;DHT22;293;53.888;11.464;2023-03-29T13:42:38;13.00;95.40
612;DHT22;293;53.888;11.464;2023-03-29T13:45:25;13.00;95.40
612;DHT22;293;53.888;11.464;2023-03-29T13:48:01;13.20;95.50
612;DHT22;293;53.888;11.464;2023-03-29T13:50:36;13.20;95.60
612;DHT22;293;53.888;11.464;2023-03-29T13:53:09;13.30;95.40
612;DHT22;293;53.888;11.464;2023-03-29T13:55:44;13.20;95.60
612;DHT22;293;53.888;11.464;2023-03-29T13:58:17;13.10;95.60
612;DHT22;293;53.888;11.464;2023-03-29T14:00:57;13.10;95.80
612;DHT22;293;53.888;11.464;2023-03-29T14:03:26;13.00;96.10
612;DHT22;293;53.888;11.464;2023-03-29T14:05:57;13.00;96.00
612;DHT22;293;53.888;11.464;2023-03-29T14:08:27;13.00;96.10
612;DHT22;293;53.888;11.464;2023-03-29T14:10:59;13.00;96.20
612;DHT22;293;53.888;11.464;2023-03-29T14:13:28;13.00;96.50
612;DHT22;293;53.888;11.464;2023-03-29T14:15:57;13.00;96.70
612;DHT22;293;53.888;11.464;2023-03-29T14:18:31;13.10;96.50
612;DHT22;293;53.888;11.464;2023-03-29T14:20:59;13.10;96.50
612;DHT22;293;53.888;11.464;2023-03-29T14:23:28;13.20;96.70
612;DHT22;293;53.888;11.464;2023-03-29T14:26:06;13.30;96.20
612;DHT22;293;53.888;11.464;2023-03-29T14:28:33;13.30;96.30
612;DHT22;293;53.888;11.464;2023-03-29T14:31:00;13.30;96.40
612;DHT22;293;53.888;11.464;2023-03-29T14:33:28;13.30;96.50
612;DHT22;293;53.888;11.464;2023-03-29T14:35:58;13.30;96.40
612;DHT22;293;53.888;11.464;2023-03-29T14:38:26;13.30;96.60
612;DHT22;293;53.888;11.464;2023-03-29T14:40:57;13.20;96.50
612;DHT22;293;53.888;11.464;2023-03-29T14:43:27;13.30;96.50
612;DHT22;293;53.888;11.464;2023-03-29T14:45:56;13.30;96.40
612;DHT22;293;53.888;11.464;2023-03-29T14:48:23;13.30;96.60
612;DHT22;293;53.888;11.464;2023-03-29T14:50:51;13.40;96.70
612;DHT22;293;53.888;11.464;2023-03-29T14:53:20;13.40;96.70
612;DHT22;293;53.888;11.464;2023-03-29T14:55:50;13.40;96.60
612;DHT22;293;53.888;11.464;2023-03-29T14:58:20;13.40;96.60
612;DHT22;293;53.888;11.464;2023-03-29T15:00:49;13.40;96.70
612;DHT22;293;53.888;11.464;2023-03-29T15:03:17;13.30;97.20
612;DHT22;293;53.888;11.464;2023-03-29T15:05:49;13.30;97.00
612;DHT22;293;53.888;11.464;2023-03-29T15:08:18;13.40;97.10
612;DHT22;293;53.888;11.464;2023-03-29T15:10:49;13.30;97.20
612;DHT22;293;53.888;11.464;2023-03-29T15:13:19;13.20;97.30
612;DHT22;293;53.888;11.464;2023-03-29T15:15:51;13.30;97.30
612;DHT22;293;53.888;11.464;2023-03-29T15:18:22;13.20;97.40
612;DHT22;293;53.888;11.464;2023-03-29T15:20:51;13.20;97.40
612;DHT22;293;53.888;11.464;2023-03-29T15:23:21;13.10;97.20
612;DHT22;293;53.888;11.464;2023-03-29T15:25:53;13.10;97.40
612;DHT22;293;53.888;11.464;2023-03-29T15:28:26;13.10;97.50
612;DHT22;293;53.888;11.464;2023-03-29T15:30:59;13.10;97.80
612;DHT22;293;53.888;11.464;2023-03-29T15:33:32;13.00;97.80
612;DHT22;293;53.888;11.464;2023-03-29T15:36:00;13.00;98.00
612;DHT22;293;53.888;11.464;2023-03-29T15:38:28;12.90;98.10
612;DHT22;293;53.888;11.464;2023-03-29T15:40:55;12.90;98.30
612;DHT22;293;53.888;11.464;2023-03-29T15:43:22;12.80;98.60
612;DHT22;293;53.888;11.464;2023-03-29T15:45:50;12.80;98.60
612;DHT22;293;53.888;11.464;2023-03-29T15:48:20;12.70;98.70
612;DHT22;293;53.888;11.464;2023-03-29T15:50:48;12.70;98.90
612;DHT22;293;53.888;11.464;2023-03-29T15:53:15;12.60;99.10
612;DHT22;293;53.888;11.464;2023-03-29T15:55:45;12.60;99.20
612;DHT22;293;53.888;11.464;2023-03-29T15:58:14;12.60;99.40
612;DHT22;293;53.888;11.464;2023-03-29T16:00:50;12.60;99.50
612;DHT22;293;53.888;11.464;2023-03-29T16:03:19;12.60;99.60
612;DHT22;293;53.888;11.464;2023-03-29T16:05:46;12.50;99.70
612;DHT22;293;53.888;11.464;2023-03-29T16:08:13;12.50;99.90
612;DHT22;293;53.888;11.464;2023-03-29T16:10:40;12.40;99.90
612;DHT22;293;53.888;11.464;2023-03-29T16:13:09;12.40;99.90
612;DHT22;293;53.888;11.464;2023-03-29T16:15:40;12.40;99.90
612;DHT22;293;53.888;11.464;2023-03-29T16:18:07;12.30;99.90
612;DHT22;293;53.888;11.464;2023-03-29T16:20:35;12.30;99.90
612;DHT22;293;53.888;11.464;2023-03-29T16:23:02;12.30;99.90
612;DHT22;293;53.888;11.464;2023-03-29T16:25:34;12.20;99.90
612;DHT22;293;53.888;11.464;2023-03-29T16:28:03;12.20;99.90
612;DHT22;293;53.888;11.464;2023-03-29T16:30:31;12.20;99.90
612;DHT22;293;53.888;11.464;2023-03-29T16:32:58;12.20;99.90
612;DHT22;293;53.888;11.464;2023-03-29T16:35:26;12.20;99.90
612;DHT22;293;53.888;11.464;2023-03-29T16:37:56;12.20;99.90
612;DHT22;293;53.888;11.464;2023-03-29T16:40:24;12.20;99.90
612;DHT22;293;53.888;11.464;2023-03-29T16:42:51;12.20;99.90
612;DHT22;293;53.888;11.464;2023-03-29T16:45:18;12.20;99.90
612;DHT22;293;53.888;11.464;2023-03-29T16:47:45;12.20;99.90
612;DHT22;293;53.888;11.464;2023-03-29T16:50:13;12.10;99.90
612;DHT22;293;53.888;11.464;2023-03-29T16:52:41;12.10;99.90